Time;durP1;ratioP1;P1;durP2;ratioP2;P2;SDS_P1;SDS_P2;PMS_P1;PMS_P2;Temp;Humidity;BMP_temperature;BMP_pressure;BME280_temperature;BME280_humidity;BME280_pressure;Samples;Min_cycle;Max_cycle;Signal;HPM_P1;HPM_P2
2023/05/18 00:02:14;;;;;;;;;;;14.70;99.90;;;;;;5093490;28;19912;-66
2023/05/18 00:04:41;;;;;;;;;;;14.70;99.90;;;;;;5093004;28;19961;-63
2023/05/18 00:07:08;;;;;;;;;;;14.80;99.90;;;;;;5093072;28;20356;-66
2023/05/18 00:09:36;;;;;;;;;;;14.80;99.90;;;;;;5093658;28;20393;-64
2023/05/18 00:12:03;;;;;;;;;;;14.70;99.90;;;;;;5092775;28;19913;-64
2023/05/18 00:14:30;;;;;;;;;;;14.80;99.90;;;;;;5092160;28;19973;-63
2023/05/18 00:17:00;;;;;;;;;;;15.00;99.90;;;;;;5093099;28;19908;-65
2023/05/18 00:19:28;;;;;;;;;;;15.10;99.90;;;;;;5092513;28;19912;-64
2023/05/18 00:21:56;;;;;;;;;;;15.10;99.90;;;;;;5092281;28;19912;-64
2023/05/18 00:24:22;;;;;;;;;;;15.20;99.90;;;;;;5093519;28;20300;-64
2023/05/18 00:26:49;;;;;;;;;;;15.30;99.90;;;;;;5092591;28;19924;-65
2023/05/18 00:29:15;;;;;;;;;;;15.40;99.90;;;;;;5092636;28;19908;-63
2023/05/18 00:31:44;;;;;;;;;;;15.40;99.90;;;;;;5092969;28;19908;-63
2023/05/18 00:34:14;;;;;;;;;;;15.50;99.90;;;;;;5092392;28;19908;-63
2023/05/18 00:36:41;;;;;;;;;;;15.60;99.90;;;;;;5093089;28;19916;-63
2023/05/18 00:39:08;;;;;;;;;;;15.70;99.90;;;;;;5092101;28;19908;-63
2023/05/18 00:41:43;;;;;;;;;;;15.80;99.90;;;;;;5110090;27;19923;-63
2023/05/18 00:44:10;;;;;;;;;;;15.90;99.90;;;;;;5103871;28;19918;-62
2023/05/18 00:46:36;;;;;;;;;;;16.00;99.90;;;;;;5107053;28;20268;-63
2023/05/18 00:49:03;;;;;;;;;;;16.00;99.90;;;;;;5090801;28;19912;-64
2023/05/18 00:51:31;;;;;;;;;;;16.20;99.90;;;;;;5102077;28;19912;-65
2023/05/18 00:53:58;;;;;;;;;;;16.20;99.90;;;;;;5107739;28;19908;-66
2023/05/18 00:56:26;;;;;;;;;;;16.30;99.90;;;;;;5093158;28;20463;-65
2023/05/18 00:58:56;;;;;;;;;;;16.40;99.90;;;;;;5104832;28;19912;-65
2023/05/18 01:01:27;;;;;;;;;;;16.50;99.90;;;;;;5108598;28;19916;-66
2023/05/18 01:04:00;;;;;;;;;;;16.50;99.90;;;;;;5106452;28;19984;-63
2023/05/18 01:06:31;;;;;;;;;;;16.50;99.90;;;;;;5109593;28;20032;-64
2023/05/18 01:09:02;;;;;;;;;;;16.50;99.90;;;;;;5107043;28;19959;-65
2023/05/18 01:11:41;;;;;;;;;;;16.60;99.90;;;;;;5093652;28;20033;-65
2023/05/18 01:14:26;;;;;;;;;;;16.80;99.90;;;;;;5099397;28;20269;-63
2023/05/18 01:16:55;;;;;;;;;;;16.80;99.90;;;;;;5109671;28;19908;-63
2023/05/18 01:19:34;;;;;;;;;;;16.70;99.90;;;;;;5108162;28;19953;-65
2023/05/18 01:22:11;;;;;;;;;;;16.80;99.90;;;;;;5108209;28;19912;-62
2023/05/18 01:24:47;;;;;;;;;;;17.00;99.90;;;;;;5108344;28;20372;-64
2023/05/18 01:27:16;;;;;;;;;;;17.00;99.90;;;;;;5109332;28;19995;-63
2023/05/18 01:29:45;;;;;;;;;;;17.00;99.90;;;;;;5108885;28;19912;-64
2023/05/18 01:32:21;;;;;;;;;;;17.10;99.90;;;;;;5088892;28;19912;-63
2023/05/18 01:34:48;;;;;;;;;;;17.30;99.90;;;;;;5096681;28;19912;-64
2023/05/18 01:37:15;;;;;;;;;;;17.40;99.90;;;;;;5108528;28;19912;-63
2023/05/18 01:39:41;;;;;;;;;;;17.60;99.90;;;;;;5112094;28;20372;-62
2023/05/18 01:42:13;;;;;;;;;;;17.80;99.90;;;;;;5126491;28;19919;-64
2023/05/18 01:44:42;;;;;;;;;;;18.00;99.90;;;;;;5111780;28;20090;-64
2023/05/18 01:47:08;;;;;;;;;;;17.90;99.90;;;;;;5129225;28;20007;-63
2023/05/18 01:49:42;;;;;;;;;;;18.00;99.90;;;;;;5129533;28;19908;-66
2023/05/18 01:52:10;;;;;;;;;;;18.00;99.90;;;;;;5102307;28;20406;-64
2023/05/18 01:54:40;;;;;;;;;;;18.10;99.90;;;;;;5113937;28;19964;-62
2023/05/18 01:57:07;;;;;;;;;;;18.00;99.90;;;;;;5115394;28;19908;-64
2023/05/18 01:59:34;;;;;;;;;;;17.90;99.90;;;;;;5113347;28;20329;-64
2023/05/18 02:02:02;;;;;;;;;;;18.00;99.90;;;;;;5103989;28;19914;-63
2023/05/18 02:04:29;;;;;;;;;;;18.10;99.90;;;;;;5115085;28;19908;-63
2023/05/18 02:06:56;;;;;;;;;;;18.20;99.90;;;;;;5102169;28;19915;-63
2023/05/18 02:09:22;;;;;;;;;;;18.10;99.90;;;;;;5104471;28;19912;-62
2023/05/18 02:11:49;;;;;;;;;;;18.20;99.90;;;;;;5114812;28;19994;-64
2023/05/18 02:14:16;;;;;;;;;;;18.10;99.90;;;;;;5114810;28;19908;-65
2023/05/18 02:16:45;;;;;;;;;;;18.00;99.90;;;;;;5115238;28;19907;-67
2023/05/18 02:19:13;;;;;;;;;;;17.80;99.90;;;;;;5101064;28;19909;-66
2023/05/18 02:21:42;;;;;;;;;;;17.70;99.90;;;;;;5111007;28;19916;-63
2023/05/18 02:24:08;;;;;;;;;;;17.60;99.90;;;;;;5114421;28;19908;-65
2023/05/18 02:26:36;;;;;;;;;;;17.60;99.90;;;;;;5115095;28;19908;-65
2023/05/18 02:29:05;;;;;;;;;;;17.60;99.90;;;;;;5114967;28;19961;-65
2023/05/18 02:31:31;;;;;;;;;;;17.70;99.90;;;;;;5114765;28;19908;-67
2023/05/18 02:33:58;;;;;;;;;;;17.80;99.90;;;;;;5122285;27;19918;-66
2023/05/18 02:36:25;;;;;;;;;;;18.00;99.90;;;;;;5123939;27;19915;-66
2023/05/18 02:38:51;;;;;;;;;;;18.20;99.90;;;;;;5114455;28;19912;-65
2023/05/18 02:41:18;;;;;;;;;;;18.30;99.90;;;;;;5113885;28;19927;-66
2023/05/18 02:43:44;;;;;;;;;;;18.50;99.90;;;;;;5114142;28;20029;-66
2023/05/18 02:46:11;;;;;;;;;;;18.70;99.70;;;;;;5111353;28;19922;-64
2023/05/18 02:48:38;;;;;;;;;;;18.80;99.20;;;;;;5114346;28;19914;-64
2023/05/18 02:51:04;;;;;;;;;;;18.80;98.90;;;;;;5114425;28;19918;-66
2023/05/18 02:53:31;;;;;;;;;;;18.70;99.10;;;;;;5114551;28;20390;-66
2023/05/18 02:55:58;;;;;;;;;;;18.70;99.40;;;;;;5114151;28;19908;-65
2023/05/18 02:58:24;;;;;;;;;;;18.70;99.30;;;;;;5112176;28;19919;-66
2023/05/18 03:00:53;;;;;;;;;;;18.80;99.00;;;;;;5103959;28;19920;-64
2023/05/18 03:03:22;;;;;;;;;;;18.60;98.50;;;;;;5094359;28;20269;-66
2023/05/18 03:05:51;;;;;;;;;;;18.50;98.90;;;;;;5114029;28;19961;-65
2023/05/18 03:08:25;;;;;;;;;;;18.50;98.10;;;;;;5113821;28;20006;-65
2023/05/18 03:10:52;;;;;;;;;;;18.40;98.40;;;;;;5105779;28;19912;-64
2023/05/18 03:13:19;;;;;;;;;;;18.40;98.40;;;;;;5075897;28;20321;-64
2023/05/18 03:15:45;;;;;;;;;;;18.30;98.80;;;;;;5094021;28;19908;-66
2023/05/18 03:18:12;;;;;;;;;;;18.20;99.00;;;;;;5102093;28;19911;-64
2023/05/18 03:20:39;;;;;;;;;;;18.20;98.60;;;;;;5113521;28;19923;-64
2023/05/18 03:23:06;;;;;;;;;;;18.10;98.80;;;;;;5106242;28;19993;-64
2023/05/18 03:25:36;;;;;;;;;;;18.00;99.40;;;;;;5112664;28;20261;-65
2023/05/18 03:28:05;;;;;;;;;;;18.10;99.90;;;;;;5113782;28;19908;-64
2023/05/18 03:30:32;;;;;;;;;;;18.10;99.40;;;;;;5112861;28;19918;-64
2023/05/18 03:33:00;;;;;;;;;;;18.10;99.70;;;;;;5093018;28;19912;-64
2023/05/18 03:35:27;;;;;;;;;;;18.10;99.90;;;;;;5109940;28;20724;-63
2023/05/18 03:37:54;;;;;;;;;;;18.00;99.90;;;;;;5113440;28;19918;-65
2023/05/18 03:40:20;;;;;;;;;;;18.10;99.30;;;;;;5112744;28;20018;-62
2023/05/18 03:42:48;;;;;;;;;;;18.10;99.00;;;;;;5112633;28;19908;-66
2023/05/18 03:45:14;;;;;;;;;;;18.00;99.20;;;;;;5112786;28;19962;-66
2023/05/18 03:47:41;;;;;;;;;;;18.10;99.30;;;;;;5113552;28;19907;-63
2023/05/18 03:50:08;;;;;;;;;;;18.30;99.30;;;;;;5113217;28;19912;-63
2023/05/18 03:52:35;;;;;;;;;;;18.50;99.80;;;;;;5113500;28;19908;-65
2023/05/18 03:55:02;;;;;;;;;;;19.50;98.30;;;;;;5113111;28;20373;-65
2023/05/18 03:57:28;;;;;;;;;;;21.00;96.70;;;;;;5098216;28;19916;-62
2023/05/18 03:59:55;;;;;;;;;;;22.60;93.50;;;;;;5094457;28;19912;-63
2023/05/18 04:02:22;;;;;;;;;;;24.30;91.10;;;;;;5102812;28;19938;-64
2023/05/18 04:04:48;;;;;;;;;;;25.60;88.90;;;;;;5092960;28;19909;-64
2023/05/18 04:07:16;;;;;;;;;;;27.00;83.50;;;;;;5114287;27;19989;-64
2023/05/18 04:09:43;;;;;;;;;;;28.10;79.80;;;;;;5112734;28;19908;-63
2023/05/18 04:12:10;;;;;;;;;;;28.40;76.10;;;;;;5099217;28;20316;-65
2023/05/18 04:14:37;;;;;;;;;;;27.70;75.90;;;;;;5092195;28;19908;-64
2023/05/18 04:17:05;;;;;;;;;;;26.90;76.00;;;;;;5101637;28;19958;-64
2023/05/18 04:19:33;;;;;;;;;;;25.70;78.50;;;;;;5112386;28;19914;-65
2023/05/18 04:21:59;;;;;;;;;;;24.60;80.80;;;;;;5111983;28;20087;-64
2023/05/18 04:24:26;;;;;;;;;;;23.90;82.90;;;;;;5111980;28;19922;-66
2023/05/18 04:26:53;;;;;;;;;;;23.00;84.40;;;;;;5112173;28;19908;-61
2023/05/18 04:29:20;;;;;;;;;;;22.30;87.30;;;;;;5101954;28;19935;-63
2023/05/18 04:31:46;;;;;;;;;;;21.60;88.70;;;;;;5104588;28;20404;-64
2023/05/18 04:34:16;;;;;;;;;;;20.90;90.10;;;;;;5110530;28;19907;-64
2023/05/18 04:36:43;;;;;;;;;;;20.60;90.80;;;;;;5112562;28;19999;-64
2023/05/18 04:39:11;;;;;;;;;;;20.30;91.60;;;;;;5112811;28;20372;-64
2023/05/18 04:41:40;;;;;;;;;;;20.30;91.60;;;;;;5098435;28;19982;-63
2023/05/18 04:44:08;;;;;;;;;;;20.30;92.10;;;;;;5093650;28;20023;-64
2023/05/18 04:46:38;;;;;;;;;;;20.20;91.80;;;;;;5091977;28;19912;-63
2023/05/18 04:49:05;;;;;;;;;;;20.00;92.10;;;;;;5099173;28;19919;-64
2023/05/18 04:51:33;;;;;;;;;;;19.80;92.40;;;;;;5111917;28;19919;-63
2023/05/18 04:54:02;;;;;;;;;;;19.60;92.70;;;;;;5094213;28;19912;-63
2023/05/18 04:56:28;;;;;;;;;;;19.30;92.70;;;;;;5107274;28;19908;-65
2023/05/18 04:58:58;;;;;;;;;;;19.10;93.30;;;;;;5111858;28;19908;-63
2023/05/18 05:01:24;;;;;;;;;;;18.90;93.80;;;;;;5111512;28;19988;-63
2023/05/18 05:03:51;;;;;;;;;;;18.70;94.40;;;;;;5111523;28;19908;-63
2023/05/18 05:06:18;;;;;;;;;;;18.40;94.60;;;;;;5109879;28;19912;-63
2023/05/18 05:08:44;;;;;;;;;;;18.20;95.10;;;;;;5093987;28;20002;-65
2023/05/18 05:11:11;;;;;;;;;;;18.10;95.50;;;;;;5111699;28;19915;-64
2023/05/18 05:13:38;;;;;;;;;;;18.20;95.70;;;;;;5093136;28;19912;-64
2023/05/18 05:16:05;;;;;;;;;;;18.20;95.70;;;;;;5103422;28;19920;-65
2023/05/18 05:18:31;;;;;;;;;;;18.40;95.60;;;;;;5096942;28;19927;-64
2023/05/18 05:20:58;;;;;;;;;;;18.40;95.60;;;;;;5099378;28;19920;-64
2023/05/18 05:23:25;;;;;;;;;;;18.50;95.40;;;;;;5110862;28;19908;-65
2023/05/18 05:25:51;;;;;;;;;;;18.60;95.60;;;;;;5110504;28;20276;-65
2023/05/18 05:28:18;;;;;;;;;;;18.40;95.20;;;;;;5103789;28;19912;-63
2023/05/18 05:30:45;;;;;;;;;;;18.30;95.40;;;;;;5109038;28;20284;-64
2023/05/18 05:33:11;;;;;;;;;;;18.40;96.10;;;;;;5115551;28;20249;-64
2023/05/18 05:35:38;;;;;;;;;;;18.50;96.10;;;;;;5116098;28;19951;-63
2023/05/18 05:38:05;;;;;;;;;;;18.70;95.10;;;;;;5112286;28;19972;-65
2023/05/18 05:40:32;;;;;;;;;;;18.60;95.40;;;;;;5115034;28;20384;-63
2023/05/18 05:42:58;;;;;;;;;;;18.70;95.80;;;;;;5100165;28;19979;-64
2023/05/18 05:45:27;;;;;;;;;;;19.00;96.20;;;;;;5095507;28;19911;-64
2023/05/18 05:47:53;;;;;;;;;;;19.10;97.00;;;;;;5099457;28;19912;-66
2023/05/18 05:50:20;;;;;;;;;;;19.10;97.70;;;;;;5115342;28;19915;-66
2023/05/18 05:52:47;;;;;;;;;;;19.20;97.60;;;;;;5114970;28;19912;-63
2023/05/18 05:55:14;;;;;;;;;;;19.40;97.30;;;;;;5110918;28;19955;-65
2023/05/18 05:57:41;;;;;;;;;;;19.30;97.70;;;;;;5114281;28;19943;-66
2023/05/18 06:00:09;;;;;;;;;;;19.20;97.70;;;;;;5114674;28;19920;-66
2023/05/18 06:02:37;;;;;;;;;;;19.10;98.10;;;;;;5114544;28;19911;-66
2023/05/18 06:05:03;;;;;;;;;;;18.90;98.30;;;;;;5114521;28;19916;-66
2023/05/18 06:07:30;;;;;;;;;;;18.60;98.80;;;;;;5099530;28;19912;-66
2023/05/18 06:09:57;;;;;;;;;;;18.30;99.70;;;;;;5114225;28;20369;-65
2023/05/18 06:12:23;;;;;;;;;;;18.10;99.90;;;;;;5100313;28;19912;-65
2023/05/18 06:14:56;;;;;;;;;;;17.90;99.90;;;;;;5093856;28;20292;-65
2023/05/18 06:17:26;;;;;;;;;;;17.70;99.90;;;;;;5098993;28;20417;-63
2023/05/18 06:19:53;;;;;;;;;;;17.60;99.90;;;;;;5095491;28;20277;-64
2023/05/18 06:22:20;;;;;;;;;;;17.40;99.90;;;;;;5114783;28;19908;-63
2023/05/18 06:24:46;;;;;;;;;;;17.20;99.90;;;;;;5096131;28;20253;-64
2023/05/18 06:27:13;;;;;;;;;;;17.00;99.90;;;;;;5096321;28;19915;-65
2023/05/18 06:29:40;;;;;;;;;;;16.90;99.90;;;;;;5112446;28;19922;-62
2023/05/18 06:32:06;;;;;;;;;;;16.80;99.90;;;;;;5093896;28;20430;-63
2023/05/18 06:34:33;;;;;;;;;;;16.60;99.90;;;;;;5111380;28;19908;-62
2023/05/18 06:37:00;;;;;;;;;;;16.60;99.90;;;;;;5113575;28;19994;-64
2023/05/18 06:39:27;;;;;;;;;;;16.50;99.90;;;;;;5113665;28;19911;-63
2023/05/18 06:41:53;;;;;;;;;;;16.40;99.90;;;;;;5112582;28;19927;-64
2023/05/18 06:44:20;;;;;;;;;;;16.30;99.90;;;;;;5113378;28;19911;-65
2023/05/18 06:46:47;;;;;;;;;;;16.20;99.90;;;;;;5113688;28;20276;-66
2023/05/18 06:49:14;;;;;;;;;;;16.10;99.90;;;;;;5113670;28;20279;-65
2023/05/18 06:51:42;;;;;;;;;;;16.00;99.90;;;;;;5113585;28;19908;-64
2023/05/18 06:54:09;;;;;;;;;;;15.90;99.90;;;;;;5112842;28;19960;-65
2023/05/18 06:56:35;;;;;;;;;;;15.80;99.90;;;;;;5113504;28;19953;-63
2023/05/18 06:59:02;;;;;;;;;;;15.70;99.90;;;;;;5113835;28;19929;-63
2023/05/18 07:01:29;;;;;;;;;;;15.70;99.90;;;;;;5113618;28;19920;-63
2023/05/18 07:03:55;;;;;;;;;;;15.60;99.90;;;;;;5113113;28;19908;-62
2023/05/18 07:06:22;;;;;;;;;;;15.50;99.90;;;;;;5112248;28;19911;-65
2023/05/18 07:08:48;;;;;;;;;;;15.40;99.90;;;;;;5112929;28;19998;-64
2023/05/18 07:11:15;;;;;;;;;;;15.40;99.90;;;;;;5112460;28;20014;-65
2023/05/18 07:13:42;;;;;;;;;;;15.40;99.90;;;;;;5114111;28;19950;-62
2023/05/18 07:16:08;;;;;;;;;;;15.30;99.90;;;;;;5113288;28;19908;-65
2023/05/18 07:18:35;;;;;;;;;;;15.30;99.90;;;;;;5114307;28;19923;-64
2023/05/18 07:21:02;;;;;;;;;;;15.20;99.90;;;;;;5113268;28;19916;-64
2023/05/18 07:23:28;;;;;;;;;;;15.20;99.90;;;;;;5101275;28;20403;-64
2023/05/18 07:25:56;;;;;;;;;;;15.10;99.90;;;;;;5096382;28;19958;-63
2023/05/18 07:28:23;;;;;;;;;;;15.10;99.90;;;;;;5111735;28;20365;-64
2023/05/18 07:30:49;;;;;;;;;;;15.00;99.90;;;;;;5099629;28;19924;-65
2023/05/18 07:33:16;;;;;;;;;;;15.00;99.90;;;;;;5092453;28;19962;-65
2023/05/18 07:35:43;;;;;;;;;;;15.00;99.90;;;;;;5112877;28;19998;-65
2023/05/18 07:38:09;;;;;;;;;;;15.00;99.90;;;;;;5100892;28;19913;-64
2023/05/18 07:40:36;;;;;;;;;;;14.90;99.90;;;;;;5092744;28;19931;-65
2023/05/18 07:43:02;;;;;;;;;;;14.90;99.90;;;;;;5093400;28;19908;-66
2023/05/18 07:45:29;;;;;;;;;;;14.80;99.90;;;;;;5110740;28;20379;-66
2023/05/18 07:47:56;;;;;;;;;;;14.70;99.90;;;;;;5105489;28;19953;-64
2023/05/18 07:50:23;;;;;;;;;;;14.70;99.90;;;;;;5098171;28;19912;-65
2023/05/18 07:52:49;;;;;;;;;;;14.70;99.90;;;;;;5110709;28;19911;-65
2023/05/18 07:55:16;;;;;;;;;;;14.70;99.90;;;;;;5113336;28;20356;-66
2023/05/18 07:57:43;;;;;;;;;;;14.80;99.90;;;;;;5112475;28;19972;-66
2023/05/18 08:00:10;;;;;;;;;;;14.80;99.90;;;;;;5102674;28;19961;-67
2023/05/18 08:02:37;;;;;;;;;;;14.80;99.90;;;;;;5092987;28;20491;-66
2023/05/18 08:05:04;;;;;;;;;;;14.80;99.90;;;;;;5092985;28;20292;-67
2023/05/18 08:07:31;;;;;;;;;;;14.80;99.90;;;;;;5101435;28;20419;-68
2023/05/18 08:09:58;;;;;;;;;;;14.80;99.90;;;;;;5100127;28;19912;-68
2023/05/18 08:12:25;;;;;;;;;;;14.80;99.90;;;;;;5092635;28;19916;-66
2023/05/18 08:14:51;;;;;;;;;;;14.70;99.90;;;;;;5092674;28;19908;-66
2023/05/18 08:17:18;;;;;;;;;;;14.60;99.90;;;;;;5096012;28;19919;-64
2023/05/18 08:19:46;;;;;;;;;;;14.60;99.90;;;;;;5102641;28;19912;-64
2023/05/18 08:22:13;;;;;;;;;;;14.60;99.90;;;;;;5113053;28;20326;-64
2023/05/18 08:24:40;;;;;;;;;;;14.50;99.90;;;;;;5113289;28;20402;-64
2023/05/18 08:27:08;;;;;;;;;;;14.60;99.90;;;;;;5112791;28;19914;-65
2023/05/18 08:29:35;;;;;;;;;;;14.50;99.90;;;;;;5101551;28;19958;-65
2023/05/18 08:32:02;;;;;;;;;;;14.50;99.90;;;;;;5092543;28;20015;-64
2023/05/18 08:34:28;;;;;;;;;;;14.50;99.90;;;;;;5092827;28;19908;-64
2023/05/18 08:36:55;;;;;;;;;;;14.50;99.90;;;;;;5092666;28;19920;-64
2023/05/18 08:39:22;;;;;;;;;;;14.40;99.90;;;;;;5092600;28;19953;-64
2023/05/18 08:41:57;;;;;;;;;;;14.40;99.90;;;;;;5092990;28;19963;-64
2023/05/18 08:44:59;;;;;;;;;;;14.40;99.90;;;;;;5108099;28;19962;-65
2023/05/18 08:47:27;;;;;;;;;;;14.40;99.90;;;;;;5010914;28;20290;-66
2023/05/18 08:49:56;;;;;;;;;;;14.30;99.90;;;;;;5089685;28;20386;-66
2023/05/18 08:52:27;;;;;;;;;;;14.30;99.90;;;;;;5111838;28;19915;-65
2023/05/18 08:54:54;;;;;;;;;;;14.30;99.90;;;;;;5106454;28;19922;-64
2023/05/18 08:57:21;;;;;;;;;;;14.20;99.90;;;;;;5092268;28;19908;-66
2023/05/18 08:59:48;;;;;;;;;;;14.20;99.90;;;;;;5107483;28;19953;-64
2023/05/18 09:02:15;;;;;;;;;;;14.20;99.90;;;;;;5102020;28;19927;-65
2023/05/18 09:04:43;;;;;;;;;;;14.10;99.90;;;;;;5100113;28;20280;-66
2023/05/18 09:07:10;;;;;;;;;;;14.10;99.90;;;;;;5116834;28;19908;-64
2023/05/18 09:09:37;;;;;;;;;;;14.00;99.90;;;;;;5116033;28;19915;-64
2023/05/18 09:12:04;;;;;;;;;;;14.00;99.90;;;;;;5115749;28;20295;-64
2023/05/18 09:14:31;;;;;;;;;;;14.10;99.90;;;;;;5116440;28;19911;-65
2023/05/18 09:16:58;;;;;;;;;;;14.10;99.90;;;;;;5115924;28;19912;-65
2023/05/18 09:19:25;;;;;;;;;;;14.10;99.90;;;;;;5116165;28;19908;-65
2023/05/18 09:21:51;;;;;;;;;;;14.20;99.90;;;;;;5097324;28;19973;-66
2023/05/18 09:24:18;;;;;;;;;;;14.20;99.90;;;;;;5095875;28;19955;-64
2023/05/18 09:26:45;;;;;;;;;;;14.20;99.90;;;;;;5099373;28;20343;-62
2023/05/18 09:29:23;;;;;;;;;;;14.20;99.90;;;;;;5115717;28;19935;-63
2023/05/18 09:31:49;;;;;;;;;;;14.30;99.90;;;;;;5116259;28;19955;-63
2023/05/18 09:34:18;;;;;;;;;;;14.30;99.90;;;;;;5115669;28;20288;-62
2023/05/18 09:36:51;;;;;;;;;;;14.30;99.90;;;;;;5115484;28;20320;-63
2023/05/18 09:39:18;;;;;;;;;;;14.30;99.90;;;;;;5115953;28;19908;-64
2023/05/18 09:41:44;;;;;;;;;;;14.30;99.90;;;;;;5114950;28;19923;-64
2023/05/18 09:44:11;;;;;;;;;;;14.20;99.90;;;;;;5095231;28;19916;-65
2023/05/18 09:46:39;;;;;;;;;;;14.10;99.90;;;;;;5095309;28;19919;-66
2023/05/18 09:49:06;;;;;;;;;;;14.10;99.90;;;;;;5104729;28;20360;-65
2023/05/18 09:51:37;;;;;;;;;;;14.10;99.90;;;;;;5115637;28;19908;-64
2023/05/18 09:54:04;;;;;;;;;;;14.00;99.90;;;;;;5115106;28;19912;-61
2023/05/18 09:56:34;;;;;;;;;;;14.00;99.90;;;;;;5115735;28;19934;-65
2023/05/18 09:59:11;;;;;;;;;;;13.90;99.90;;;;;;5115178;28;19922;-65
2023/05/18 10:01:54;;;;;;;;;;;13.90;99.90;;;;;;5115622;28;19919;-63
2023/05/18 10:04:25;;;;;;;;;;;13.90;99.90;;;;;;5115147;28;20287;-64
2023/05/18 10:06:56;;;;;;;;;;;13.90;99.90;;;;;;5097188;28;19904;-64
2023/05/18 10:09:23;;;;;;;;;;;13.90;99.90;;;;;;5114360;28;20359;-64
2023/05/18 10:11:52;;;;;;;;;;;14.00;99.90;;;;;;5115557;28;19908;-66
2023/05/18 10:14:23;;;;;;;;;;;13.90;99.90;;;;;;5114440;28;20360;-66
2023/05/18 10:16:51;;;;;;;;;;;13.90;99.90;;;;;;5113296;28;19919;-66
2023/05/18 10:19:22;;;;;;;;;;;13.80;99.90;;;;;;5114615;28;19911;-66
2023/05/18 10:21:56;;;;;;;;;;;13.80;99.90;;;;;;5095948;28;20330;-66
2023/05/18 10:24:45;;;;;;;;;;;13.70;99.90;;;;;;5114793;28;19912;-63
2023/05/18 10:27:14;;;;;;;;;;;13.60;99.90;;;;;;5115065;28;20253;-65
2023/05/18 10:29:40;;;;;;;;;;;13.70;99.90;;;;;;5097615;27;19916;-63
2023/05/18 10:32:11;;;;;;;;;;;13.60;99.90;;;;;;5114666;28;19990;-63
2023/05/18 10:34:39;;;;;;;;;;;13.60;99.90;;;;;;5124565;27;19914;-64
2023/05/18 10:37:06;;;;;;;;;;;13.50;99.90;;;;;;5135728;27;20001;-64
2023/05/18 10:39:35;;;;;;;;;;;13.50;99.90;;;;;;5109348;27;19918;-65
2023/05/18 10:42:03;;;;;;;;;;;13.50;99.90;;;;;;5113839;28;19924;-63
2023/05/18 10:44:30;;;;;;;;;;;13.50;99.90;;;;;;5112884;28;19955;-67
2023/05/18 10:46:57;;;;;;;;;;;13.50;99.90;;;;;;5114208;28;19939;-66
2023/05/18 10:49:25;;;;;;;;;;;13.40;99.90;;;;;;5114694;28;19908;-63
2023/05/18 10:51:55;;;;;;;;;;;13.40;99.90;;;;;;5108869;28;19918;-66
2023/05/18 10:54:22;;;;;;;;;;;13.40;99.90;;;;;;5093828;28;19908;-67
2023/05/18 10:56:51;;;;;;;;;;;13.30;99.90;;;;;;5094351;28;19954;-66
2023/05/18 10:59:18;;;;;;;;;;;13.30;99.90;;;;;;5104554;28;20032;-67
2023/05/18 11:01:46;;;;;;;;;;;13.30;99.90;;;;;;5095796;28;20329;-64
2023/05/18 11:04:13;;;;;;;;;;;13.20;99.90;;;;;;5113625;28;19946;-63
2023/05/18 11:06:40;;;;;;;;;;;13.20;99.90;;;;;;5114042;28;19912;-65
2023/05/18 11:09:06;;;;;;;;;;;13.20;99.90;;;;;;5114541;28;19904;-62
2023/05/18 11:11:55;;;;;;;;;;;13.20;99.90;;;;;;5109864;28;19912;-64
2023/05/18 11:14:29;;;;;;;;;;;13.10;99.90;;;;;;5112262;28;19919;-64
2023/05/18 11:17:14;;;;;;;;;;;13.10;99.90;;;;;;5111706;28;19943;-65
2023/05/18 11:20:00;;;;;;;;;;;13.00;99.90;;;;;;5111991;28;19915;-66
2023/05/18 11:22:40;;;;;;;;;;;13.00;99.90;;;;;;5112525;28;19919;-63
2023/05/18 11:25:29;;;;;;;;;;;13.00;99.90;;;;;;5092756;28;20064;-66
2023/05/18 11:28:01;;;;;;;;;;;12.90;99.90;;;;;;5093729;28;19912;-66
2023/05/18 11:30:34;;;;;;;;;;;12.90;99.90;;;;;;5092983;28;19908;-65
2023/05/18 11:33:08;;;;;;;;;;;12.80;99.90;;;;;;5093856;28;19957;-66
2023/05/18 11:35:53;;;;;;;;;;;12.70;99.90;;;;;;5093588;28;19969;-64
2023/05/18 11:38:20;;;;;;;;;;;12.70;99.90;;;;;;5106895;28;19915;-65
2023/05/18 11:40:47;;;;;;;;;;;12.60;99.90;;;;;;5091755;28;19920;-64
2023/05/18 11:43:21;;;;;;;;;;;12.60;99.90;;;;;;5108501;28;19978;-65
2023/05/18 11:45:53;;;;;;;;;;;12.60;99.90;;;;;;5107491;28;20380;-63
2023/05/18 11:48:21;;;;;;;;;;;12.60;99.90;;;;;;5103192;28;19927;-63
2023/05/18 11:50:48;;;;;;;;;;;12.50;99.90;;;;;;5093112;28;19912;-67
2023/05/18 11:53:18;;;;;;;;;;;12.40;99.90;;;;;;5092991;28;19912;-65
2023/05/18 11:55:45;;;;;;;;;;;12.50;99.90;;;;;;5093247;28;19916;-65
2023/05/18 11:58:17;;;;;;;;;;;12.40;99.90;;;;;;5110608;28;20420;-66
2023/05/18 12:00:46;;;;;;;;;;;12.40;99.90;;;;;;5113525;28;19920;-66
2023/05/18 12:03:13;;;;;;;;;;;12.30;99.90;;;;;;5095691;28;20283;-62
2023/05/18 12:05:42;;;;;;;;;;;12.30;99.90;;;;;;5113681;28;19991;-65
2023/05/18 12:08:08;;;;;;;;;;;12.30;99.90;;;;;;5113318;28;19924;-65
2023/05/18 12:10:36;;;;;;;;;;;12.30;99.90;;;;;;5093354;28;19943;-65
2023/05/18 12:13:03;;;;;;;;;;;12.30;99.90;;;;;;5093095;28;19914;-63
2023/05/18 12:15:30;;;;;;;;;;;12.20;99.90;;;;;;5092879;28;20052;-63
2023/05/18 12:17:58;;;;;;;;;;;12.10;99.90;;;;;;5093250;28;19908;-64
2023/05/18 12:20:25;;;;;;;;;;;12.10;99.90;;;;;;5093574;28;19918;-65
2023/05/18 12:22:52;;;;;;;;;;;12.20;99.90;;;;;;5112893;28;19995;-64
2023/05/18 12:25:20;;;;;;;;;;;12.00;99.90;;;;;;5113353;28;19908;-63
2023/05/18 12:27:47;;;;;;;;;;;12.00;99.90;;;;;;5112864;28;19912;-64
2023/05/18 12:30:18;;;;;;;;;;;11.90;99.90;;;;;;5113229;28;19915;-63
2023/05/18 12:32:45;;;;;;;;;;;11.80;99.90;;;;;;5094112;28;19970;-65
2023/05/18 12:35:12;;;;;;;;;;;11.90;99.90;;;;;;5094971;28;19912;-63
2023/05/18 12:37:45;;;;;;;;;;;11.80;99.90;;;;;;5103520;28;19911;-63
2023/05/18 12:40:15;;;;;;;;;;;11.80;99.90;;;;;;5112524;28;20384;-62
2023/05/18 12:42:52;;;;;;;;;;;11.90;99.90;;;;;;5113074;28;20483;-63
2023/05/18 12:45:20;;;;;;;;;;;11.90;99.90;;;;;;5112993;28;20292;-63
2023/05/18 12:47:52;;;;;;;;;;;11.80;99.90;;;;;;5108515;28;20376;-62
2023/05/18 12:50:19;;;;;;;;;;;11.80;99.90;;;;;;5092706;28;19912;-62
2023/05/18 12:52:49;;;;;;;;;;;11.80;99.90;;;;;;5092478;28;19912;-62
2023/05/18 12:55:22;;;;;;;;;;;11.80;99.90;;;;;;5092437;28;19909;-63
2023/05/18 12:58:17;;;;;;;;;;;11.80;99.90;;;;;;5093476;28;19943;-63
2023/05/18 13:00:45;;;;;;;;;;;11.80;99.90;;;;;;5095858;28;20591;-62
2023/05/18 13:03:15;;;;;;;;;;;11.70;99.90;;;;;;5092285;28;19930;-62
2023/05/18 13:05:44;;;;;;;;;;;11.70;99.90;;;;;;5095993;28;20352;-65
2023/05/18 13:08:22;;;;;;;;;;;11.70;99.90;;;;;;5112959;28;20000;-63
2023/05/18 13:10:49;;;;;;;;;;;11.60;99.90;;;;;;5112947;28;19908;-62
2023/05/18 13:13:16;;;;;;;;;;;11.60;99.90;;;;;;5097306;28;19912;-63
2023/05/18 13:15:43;;;;;;;;;;;11.60;99.90;;;;;;5092428;28;19931;-62
2023/05/18 13:18:10;;;;;;;;;;;11.60;99.90;;;;;;5092215;28;19912;-62
2023/05/18 13:20:40;;;;;;;;;;;11.50;99.90;;;;;;5092339;28;19916;-64
2023/05/18 13:23:10;;;;;;;;;;;11.50;99.90;;;;;;5092374;28;19912;-64
2023/05/18 13:25:37;;;;;;;;;;;11.40;99.90;;;;;;5107692;28;19919;-62
2023/05/18 13:28:05;;;;;;;;;;;11.40;99.90;;;;;;5112528;28;19908;-63
2023/05/18 13:30:32;;;;;;;;;;;11.40;99.90;;;;;;5112390;28;19912;-63
2023/05/18 13:32:59;;;;;;;;;;;11.40;99.90;;;;;;5112787;28;19947;-62
2023/05/18 13:35:25;;;;;;;;;;;11.40;99.90;;;;;;5111067;28;19915;-62
2023/05/18 13:37:52;;;;;;;;;;;11.30;99.90;;;;;;5092263;28;19912;-62
2023/05/18 13:40:20;;;;;;;;;;;11.40;99.90;;;;;;5092088;28;20368;-63
2023/05/18 13:42:46;;;;;;;;;;;11.30;99.90;;;;;;5092123;28;19912;-62
2023/05/18 13:45:13;;;;;;;;;;;11.30;99.90;;;;;;5092470;28;20419;-61
2023/05/18 13:47:40;;;;;;;;;;;11.30;99.90;;;;;;5112763;28;20317;-62
2023/05/18 13:50:08;;;;;;;;;;;11.20;99.90;;;;;;5116237;28;19908;-61
2023/05/18 13:52:35;;;;;;;;;;;11.20;99.90;;;;;;5116182;28;19908;-63
2023/05/18 13:55:03;;;;;;;;;;;11.20;99.90;;;;;;5116082;28;19912;-63
2023/05/18 13:57:31;;;;;;;;;;;11.20;99.90;;;;;;5096630;28;20274;-62
2023/05/18 13:59:58;;;;;;;;;;;11.20;99.90;;;;;;5095650;28;19912;-63
2023/05/18 14:02:25;;;;;;;;;;;11.20;99.90;;;;;;5095411;28;19935;-63
2023/05/18 14:04:52;;;;;;;;;;;11.20;99.90;;;;;;5108120;28;19919;-62
2023/05/18 14:07:19;;;;;;;;;;;11.20;99.90;;;;;;5115956;28;19915;-62
2023/05/18 14:09:45;;;;;;;;;;;11.20;99.90;;;;;;5110579;28;19912;-63
2023/05/18 14:12:12;;;;;;;;;;;11.10;99.90;;;;;;5095659;28;20345;-62
2023/05/18 14:14:39;;;;;;;;;;;11.10;99.90;;;;;;5095510;28;19919;-62
2023/05/18 14:17:06;;;;;;;;;;;11.10;99.90;;;;;;5095339;28;19912;-62
2023/05/18 14:19:33;;;;;;;;;;;11.20;99.90;;;;;;5095624;28;19916;-62
2023/05/18 14:21:59;;;;;;;;;;;11.10;99.90;;;;;;5102796;28;19919;-65
2023/05/18 14:24:26;;;;;;;;;;;11.10;99.90;;;;;;5115060;28;19912;-61